createdAt,value
2019-04-10T00:04:02.846Z,9.80
2019-04-10T00:08:12.298Z,9.70
2019-04-10T00:12:21.216Z,9.70
2019-04-10T00:16:29.931Z,9.70
2019-04-10T00:20:38.506Z,9.70
2019-04-10T00:24:47.018Z,9.60
2019-04-10T00:28:56.058Z,9.60
2019-04-10T00:33:04.753Z,9.60
2019-04-10T00:37:21.846Z,9.40
2019-04-10T00:41:23.967Z,9.40
2019-04-10T00:45:33.426Z,9.40
2019-04-10T00:49:42.187Z,9.30
2019-04-10T00:53:51.676Z,9.20
2019-04-10T00:58:01.510Z,9.20
2019-04-10T01:02:10.236Z,9.20
2019-04-10T01:06:19.803Z,9.20
2019-04-10T01:10:28.529Z,9.20
2019-04-10T01:14:37.971Z,9.10
2019-04-10T01:18:47.726Z,9.00
2019-04-10T01:22:57.321Z,9.00
2019-04-10T01:27:05.862Z,8.90
2019-04-10T01:31:15.147Z,8.90
2019-04-10T01:35:24.538Z,8.90
2019-04-10T01:39:34.660Z,8.80
2019-04-10T01:43:43.490Z,8.90
2019-04-10T01:47:51.973Z,8.80
2019-04-10T01:52:00.558Z,8.80
2019-04-10T01:56:21.247Z,8.60
2019-04-10T02:00:21.577Z,8.70
2019-04-10T02:04:31.042Z,8.70
2019-04-10T02:08:40.289Z,8.70
2019-04-10T02:12:48.894Z,8.70
2019-04-10T02:16:57.422Z,8.50
2019-04-10T02:21:06.173Z,8.50
2019-04-10T02:25:15.708Z,8.40
2019-04-10T02:29:24.299Z,8.30
2019-04-10T02:33:33.622Z,8.20
2019-04-10T02:37:43.426Z,8.30
2019-04-10T02:41:52.384Z,8.20
2019-04-10T02:46:02.200Z,8.00
2019-04-10T02:50:12.510Z,8.20
2019-04-10T02:54:21.481Z,8.00
2019-04-10T02:58:30.083Z,8.10
2019-04-10T03:02:39.248Z,8.00
2019-04-10T03:06:48.805Z,8.00
2019-04-10T03:11:03.526Z,7.90
2019-04-10T03:15:09.916Z,7.90
2019-04-10T03:19:19.125Z,7.80
2019-04-10T03:23:27.859Z,7.80
2019-04-10T03:27:36.529Z,7.80
2019-04-10T03:31:45.811Z,7.80
2019-04-10T03:35:56.997Z,7.80
2019-04-10T03:40:07.493Z,7.70
2019-04-10T03:44:16.659Z,7.60
2019-04-10T03:48:25.592Z,7.70
2019-04-10T03:52:34.069Z,7.50
2019-04-10T03:56:42.590Z,7.40
2019-04-10T04:00:52.185Z,7.30
2019-04-10T04:05:00.764Z,7.30
2019-04-10T04:09:11.649Z,7.40
2019-04-10T04:13:19.577Z,7.40
2019-04-10T04:17:28.314Z,7.50
2019-04-10T04:21:36.949Z,7.40
2019-04-10T04:25:46.233Z,7.30
2019-04-10T04:29:55.332Z,7.20
2019-04-10T04:34:04.057Z,7.20
2019-04-10T04:38:13.421Z,7.20
2019-04-10T04:42:22.346Z,7.10
2019-04-10T04:46:30.965Z,7.00
2019-04-10T04:50:39.450Z,6.90
2019-04-10T04:54:47.937Z,6.90
2019-04-10T04:58:56.451Z,6.80
2019-04-10T05:03:04.922Z,6.80
2019-04-10T05:07:13.570Z,6.90
2019-04-10T05:11:22.396Z,6.80
2019-04-10T05:15:31.104Z,6.60
2019-04-10T05:19:40.487Z,6.60
2019-04-10T05:23:49.309Z,6.50
2019-04-10T05:27:57.787Z,6.50
2019-04-10T05:32:07.243Z,6.50
2019-04-10T05:36:15.884Z,6.50
2019-04-10T05:40:24.366Z,6.50
2019-04-10T05:44:33.932Z,6.50
2019-04-10T05:48:46.405Z,6.50
2019-04-10T05:52:55.904Z,6.50
2019-04-10T05:57:04.617Z,6.60
2019-04-10T06:01:13.563Z,6.60
2019-04-10T06:05:22.396Z,6.80
2019-04-10T06:09:31.276Z,6.70
2019-04-10T06:13:40.837Z,6.50
2019-04-10T06:17:49.493Z,6.40
2019-04-10T06:21:57.987Z,6.40
2019-04-10T06:26:06.897Z,6.40
2019-04-10T06:30:15.621Z,6.30
2019-04-10T06:34:24.901Z,6.30
2019-04-10T06:38:33.478Z,6.30
2019-04-10T06:42:48.503Z,6.30
2019-04-10T06:46:52.930Z,6.30
2019-04-10T06:51:02.075Z,6.40
2019-04-10T06:55:11.332Z,6.50
2019-04-10T06:59:21.144Z,6.60
2019-04-10T07:03:46.764Z,6.60
2019-04-10T07:07:49.869Z,6.70
2019-04-10T07:11:56.006Z,6.70
2019-04-10T07:16:00.618Z,6.80
2019-04-10T07:20:09.678Z,6.90
2019-04-10T07:24:18.828Z,7.00
2019-04-10T07:28:27.830Z,7.10
2019-04-10T07:32:36.338Z,7.10
2019-04-10T07:36:45.493Z,7.20
2019-04-10T07:41:21.464Z,7.20
2019-04-10T07:45:27.388Z,7.40
2019-04-10T07:49:55.305Z,7.40
2019-04-10T07:54:04.111Z,7.50
2019-04-10T07:58:13.194Z,7.60
2019-04-10T08:02:21.873Z,7.50
2019-04-10T08:06:30.337Z,7.50
2019-04-10T08:10:38.822Z,7.70
2019-04-10T08:14:48.520Z,7.90
2019-04-10T08:18:57.074Z,8.00
2019-04-10T08:23:07.506Z,8.10
2019-04-10T08:27:17.130Z,8.30
2019-04-10T08:31:25.815Z,8.60
2019-04-10T08:35:34.320Z,8.80
2019-04-10T08:39:45.969Z,8.90
2019-04-10T08:43:52.996Z,9.00
2019-04-10T08:48:01.532Z,9.10
2019-04-10T08:52:10.372Z,9.10
2019-04-10T08:56:18.974Z,9.10
2019-04-10T09:00:27.526Z,9.40
2019-04-10T09:04:36.961Z,9.40
2019-04-10T09:08:45.589Z,9.70
2019-04-10T09:12:54.573Z,9.70
2019-04-10T09:17:04.258Z,9.80
2019-04-10T09:21:13.329Z,10.00
2019-04-10T09:25:22.927Z,10.30
2019-04-10T09:29:32.049Z,10.50
2019-04-10T09:33:40.571Z,10.40
2019-04-10T09:37:49.024Z,10.40
2019-04-10T09:41:58.722Z,10.40
2019-04-10T09:46:08.435Z,10.60
2019-04-10T09:50:17.723Z,10.80
2019-04-10T09:54:26.561Z,10.80
2019-04-10T09:58:35.097Z,11.00
2019-04-10T10:02:43.738Z,11.30
2019-04-10T10:06:53.529Z,11.50
2019-04-10T10:11:02.154Z,11.80
2019-04-10T10:15:11.453Z,12.00
2019-04-10T10:19:20.082Z,12.20
2019-04-10T10:23:29.639Z,12.40
2019-04-10T10:27:38.618Z,12.60
2019-04-10T10:31:49.723Z,12.60
2019-04-10T10:35:57.753Z,12.60
2019-04-10T10:40:08.301Z,12.70
2019-04-10T10:44:17.427Z,13.00
2019-04-10T10:48:25.956Z,13.20
2019-04-10T10:52:35.448Z,13.50
2019-04-10T10:56:44.694Z,13.80
2019-04-10T11:00:53.725Z,13.60
2019-04-10T11:05:06.565Z,13.90
2019-04-10T11:09:15.626Z,13.90
2019-04-10T11:13:24.544Z,14.00
2019-04-10T11:17:34.219Z,13.90
2019-04-10T11:21:42.984Z,13.90
2019-04-10T11:25:52.901Z,13.90
2019-04-10T11:30:03.472Z,13.80
2019-04-10T11:34:12.271Z,13.80
2019-04-10T11:38:21.634Z,13.90
2019-04-10T11:42:32.175Z,14.00
2019-04-10T11:46:41.882Z,13.90
2019-04-10T11:50:51.034Z,13.90
2019-04-10T11:55:07.032Z,14.00
2019-04-10T11:59:13.939Z,13.80
2019-04-10T12:03:22.195Z,14.00
2019-04-10T12:11:41.579Z,14.30
2019-04-10T12:15:50.558Z,14.40
2019-04-10T12:19:59.190Z,14.50
2019-04-10T12:24:07.766Z,14.30
2019-04-10T12:28:16.323Z,14.40
2019-04-10T12:32:25.074Z,14.50
2019-04-10T12:36:34.333Z,14.60
2019-04-10T12:40:42.982Z,14.60
2019-04-10T12:44:51.477Z,14.70
2019-04-10T12:49:01.466Z,14.80
2019-04-10T12:53:11.457Z,14.90
2019-04-10T12:57:21.036Z,14.90
2019-04-10T13:01:30.919Z,14.60
2019-04-10T13:05:39.604Z,14.70
2019-04-10T13:09:48.526Z,14.70
2019-04-10T13:13:58.223Z,14.70
2019-04-10T13:18:07.895Z,14.70
2019-04-10T13:22:16.602Z,14.70
2019-04-10T13:26:26.002Z,14.60
2019-04-10T13:30:46.900Z,14.60
2019-04-10T13:34:45.774Z,14.60
2019-04-10T13:38:54.787Z,14.80
2019-04-10T13:43:03.591Z,14.80
2019-04-10T13:47:13.287Z,14.70
2019-04-10T13:51:21.843Z,14.60
2019-04-10T13:55:30.545Z,14.70
2019-04-10T13:59:39.421Z,14.80
2019-04-10T14:03:48.300Z,14.90
2019-04-10T14:07:57.723Z,14.90
2019-04-10T14:12:06.366Z,14.90
2019-04-10T14:16:15.324Z,15.00
2019-04-10T14:20:24.004Z,14.90
2019-04-10T14:24:40.307Z,14.80
2019-04-10T14:28:43.075Z,14.70
2019-04-10T14:32:52.622Z,14.80
2019-04-10T14:37:01.179Z,14.70
2019-04-10T14:41:09.983Z,14.70
2019-04-10T14:45:19.332Z,14.50
2019-04-10T14:49:29.305Z,14.50
2019-04-10T14:53:37.982Z,14.50
2019-04-10T14:57:47.412Z,14.60
2019-04-10T15:01:56.143Z,14.50
2019-04-10T15:06:04.987Z,14.40
2019-04-10T15:10:13.782Z,14.20
2019-04-10T15:14:32.500Z,14.20
2019-04-10T15:18:42.140Z,13.90
2019-04-10T15:22:50.660Z,14.00
2019-04-10T15:26:59.135Z,13.90
2019-04-10T15:31:08.848Z,13.80
2019-04-10T15:35:18.109Z,13.90
2019-04-10T15:39:34.097Z,13.80
2019-04-10T15:43:37.166Z,13.80
2019-04-10T15:47:52.492Z,13.60
2019-04-10T15:51:57.200Z,13.50
2019-04-10T15:56:06.058Z,13.40
2019-04-10T16:00:15.441Z,13.30
2019-04-10T16:04:24.133Z,13.30
2019-04-10T16:08:34.405Z,13.20
2019-04-10T16:12:43.761Z,13.20
2019-04-10T16:17:02.480Z,13.20
2019-04-10T16:21:11.030Z,13.00
2019-04-10T16:25:22.020Z,12.90
2019-04-10T16:29:30.579Z,13.00
2019-04-10T16:33:39.152Z,12.80
2019-04-10T16:37:47.681Z,12.80
2019-04-10T16:41:56.182Z,12.70
2019-04-10T16:46:05.011Z,12.60
2019-04-10T16:50:13.722Z,12.60
2019-04-10T16:54:22.309Z,12.50
2019-04-10T16:58:31.882Z,12.40
2019-04-10T17:02:40.593Z,12.40
2019-04-10T17:06:49.097Z,12.30
2019-04-10T17:10:58.744Z,12.20
2019-04-10T17:15:12.248Z,12.10
2019-04-10T17:19:21.608Z,12.00
2019-04-10T17:23:30.446Z,11.90
2019-04-10T17:27:39.458Z,11.80
2019-04-10T17:31:48.845Z,11.70
2019-04-10T17:35:58.049Z,11.70
2019-04-10T17:40:09.562Z,11.50
2019-04-10T17:44:18.095Z,11.40
2019-04-10T17:48:28.063Z,11.40
2019-04-10T17:52:38.036Z,11.30
2019-04-10T17:56:46.704Z,11.20
2019-04-10T18:00:57.819Z,11.10
2019-04-10T18:05:06.612Z,11.10
2019-04-10T18:09:15.844Z,11.00
2019-04-10T18:13:24.711Z,10.90
2019-04-10T18:17:33.299Z,10.90
2019-04-10T18:21:44.142Z,10.80
2019-04-10T18:25:52.063Z,10.70
2019-04-10T18:30:00.527Z,10.60
2019-04-10T18:34:11.004Z,10.60
2019-04-10T18:38:19.532Z,10.40
2019-04-10T18:42:28.765Z,10.40
2019-04-10T18:46:39.561Z,10.30
2019-04-10T18:50:48.132Z,10.30
2019-04-10T18:54:57.040Z,10.30
2019-04-10T18:59:20.566Z,10.30
2019-04-10T19:03:45.188Z,10.20
2019-04-10T19:07:43.984Z,10.10
2019-04-10T19:11:52.826Z,10.10
2019-04-10T19:16:01.449Z,10.00
2019-04-10T19:20:11.104Z,9.90
2019-04-10T19:24:21.907Z,9.90
2019-04-10T19:28:35.965Z,9.80
2019-04-10T19:32:41.561Z,9.80
2019-04-10T19:36:50.209Z,9.80
2019-04-10T19:40:58.710Z,9.70
2019-04-10T19:45:07.967Z,9.60
2019-04-10T19:49:16.565Z,9.50
2019-04-10T19:53:25.080Z,9.30
2019-04-10T19:57:33.583Z,9.20
2019-04-10T20:01:42.360Z,9.10
2019-04-10T20:05:51.288Z,9.10
2019-04-10T20:10:02.089Z,9.10
2019-04-10T20:14:10.489Z,9.10
2019-04-10T20:18:19.123Z,9.20
2019-04-10T20:22:29.130Z,9.10
2019-04-10T20:26:39.102Z,9.10
2019-04-10T20:30:48.675Z,9.00
2019-04-10T20:34:58.053Z,9.00
2019-04-10T20:39:07.813Z,8.90
2019-04-10T20:43:16.423Z,8.90
2019-04-10T20:47:24.927Z,8.90
2019-04-10T20:51:33.608Z,8.70
2019-04-10T20:55:42.122Z,8.60
2019-04-10T20:59:51.041Z,8.60
2019-04-10T21:04:00.761Z,8.70
2019-04-10T21:08:09.693Z,8.50
2019-04-10T21:12:21.041Z,8.40
2019-04-10T21:16:28.425Z,8.30
2019-04-10T21:20:36.855Z,8.20
2019-04-10T21:24:45.578Z,8.20
2019-04-10T21:28:54.055Z,8.30
2019-04-10T21:33:07.963Z,8.30
2019-04-10T21:37:17.833Z,8.30
2019-04-10T21:41:26.546Z,8.10
2019-04-10T21:45:35.138Z,8.00
2019-04-10T21:49:44.212Z,7.80
2019-04-10T21:53:53.807Z,7.70
2019-04-10T21:58:02.490Z,7.60
2019-04-10T22:02:11.212Z,7.40
2019-04-10T22:06:38.209Z,7.40
2019-04-10T22:10:48.425Z,7.40
2019-04-10T22:14:58.055Z,7.40
2019-04-10T22:19:07.637Z,7.40
2019-04-10T22:23:16.135Z,7.40
2019-04-10T22:27:25.546Z,7.40
2019-04-10T22:31:35.534Z,7.50
2019-04-10T22:35:44.271Z,7.50
2019-04-10T22:39:52.942Z,7.50
2019-04-10T22:44:01.453Z,7.40
2019-04-10T22:48:09.885Z,7.40
2019-04-10T22:52:19.559Z,7.30
2019-04-10T22:56:29.359Z,7.30
2019-04-10T23:00:37.987Z,7.10
2019-04-10T23:04:47.126Z,6.90
2019-04-10T23:08:55.912Z,6.80
2019-04-10T23:13:06.805Z,6.70
2019-04-10T23:17:14.744Z,6.60
2019-04-10T23:21:23.171Z,6.60
2019-04-10T23:25:32.134Z,6.40
2019-04-10T23:29:40.628Z,6.20
2019-04-10T23:33:50.258Z,6.20
2019-04-10T23:37:59.507Z,6.20
2019-04-10T23:42:08.075Z,6.20
2019-04-10T23:46:16.545Z,6.20
2019-04-10T23:50:26.155Z,6.10
2019-04-10T23:54:35.490Z,6.00
2019-04-10T23:58:44.438Z,5.90
